createdAt,value
2023-06-03T00:00:57.937Z,91.49
2023-06-03T00:03:46.252Z,92.50
2023-06-03T00:06:13.803Z,92.26
2023-06-03T00:08:42.901Z,91.53
2023-06-03T00:11:12.040Z,91.58
2023-06-03T00:13:39.440Z,91.57
2023-06-03T00:16:07.236Z,91.92
2023-06-03T00:18:34.225Z,92.32
2023-06-03T00:21:02.029Z,92.52
2023-06-03T00:23:28.925Z,92.99
2023-06-03T00:25:55.765Z,92.98
2023-06-03T00:28:22.530Z,92.72
2023-06-03T00:30:50.968Z,93.14
2023-06-03T00:33:18.166Z,93.01
2023-06-03T00:35:44.929Z,92.59
2023-06-03T00:38:11.842Z,92.51
2023-06-03T00:40:38.761Z,92.93
2023-06-03T00:43:05.494Z,92.93
2023-06-03T00:45:32.413Z,93.38
2023-06-03T00:47:59.808Z,93.30
2023-06-03T00:50:26.715Z,93.53
2023-06-03T00:52:54.098Z,93.34
2023-06-03T00:55:20.905Z,93.69
2023-06-03T00:57:49.191Z,94.21
2023-06-03T01:00:16.163Z,94.29
2023-06-03T01:02:44.676Z,93.93
2023-06-03T01:05:13.794Z,94.44
2023-06-03T01:08:25.184Z,94.37
2023-06-03T01:11:06.243Z,94.31
2023-06-03T01:13:43.630Z,94.00
2023-06-03T01:16:12.898Z,94.15
2023-06-03T01:18:43.127Z,94.00
2023-06-03T01:21:12.972Z,94.23
2023-06-03T01:23:44.677Z,94.16
2023-06-03T01:26:12.426Z,94.31
2023-06-03T01:28:39.891Z,94.31
2023-06-03T01:31:07.663Z,93.97
2023-06-03T01:33:36.407Z,94.14
2023-06-03T01:36:05.174Z,94.12
2023-06-03T01:38:33.301Z,93.89
2023-06-03T01:41:03.363Z,94.30
2023-06-03T01:43:31.025Z,94.50
2023-06-03T01:45:58.135Z,94.60
2023-06-03T01:48:25.242Z,94.23
2023-06-03T01:50:52.014Z,93.70
2023-06-03T01:53:19.904Z,93.53
2023-06-03T01:55:47.027Z,93.46
2023-06-03T01:58:14.491Z,93.31
2023-06-03T02:00:42.537Z,93.47
2023-06-03T02:03:09.440Z,93.24
2023-06-03T02:05:36.482Z,93.02
2023-06-03T02:08:03.367Z,93.07
2023-06-03T02:10:30.785Z,92.97
2023-06-03T02:12:57.882Z,93.32
2023-06-03T02:15:24.920Z,94.10
2023-06-03T02:17:51.738Z,94.37
2023-06-03T02:20:18.686Z,94.55
2023-06-03T02:22:45.971Z,94.54
2023-06-03T02:25:13.986Z,94.65
2023-06-03T02:27:40.701Z,94.20
2023-06-03T02:30:12.326Z,94.00
2023-06-03T02:32:39.182Z,93.82
2023-06-03T02:35:06.538Z,93.44
2023-06-03T02:37:33.798Z,93.17
2023-06-03T02:40:01.193Z,93.03
2023-06-03T02:42:28.636Z,93.10
2023-06-03T02:44:55.851Z,93.14
2023-06-03T02:47:23.274Z,93.69
2023-06-03T02:49:51.365Z,94.44
2023-06-03T02:52:18.364Z,93.99
2023-06-03T02:54:45.150Z,94.09
2023-06-03T02:57:11.942Z,94.20
2023-06-03T02:59:38.987Z,94.01
2023-06-03T03:02:06.179Z,94.43
2023-06-03T03:04:36.842Z,94.13
2023-06-03T03:07:09.993Z,93.75
2023-06-03T03:09:37.539Z,93.68
2023-06-03T03:12:05.760Z,93.63
2023-06-03T03:14:33.091Z,93.58
2023-06-03T03:17:00.244Z,94.02
2023-06-03T03:19:27.616Z,95.32
2023-06-03T03:21:54.407Z,95.69
2023-06-03T03:24:26.719Z,96.14
2023-06-03T03:26:54.348Z,96.28
2023-06-03T03:29:24.740Z,96.06
2023-06-03T03:31:58.020Z,95.94
2023-06-03T03:34:25.101Z,96.37
2023-06-03T03:36:52.307Z,96.18
2023-06-03T03:39:19.875Z,95.97
2023-06-03T03:41:51.216Z,96.18
2023-06-03T03:44:18.101Z,96.40
2023-06-03T03:47:04.053Z,96.56
2023-06-03T03:49:35.867Z,96.50
2023-06-03T03:52:06.200Z,95.94
2023-06-03T03:54:35.900Z,95.47
2023-06-03T03:57:09.965Z,95.22
2023-06-03T03:59:37.310Z,95.43
2023-06-03T04:02:04.394Z,95.62
2023-06-03T04:04:43.217Z,95.35
2023-06-03T04:07:15.093Z,95.65
2023-06-03T04:09:44.933Z,95.79
2023-06-03T04:12:25.897Z,95.38
2023-06-03T04:14:54.503Z,95.13
2023-06-03T04:17:25.924Z,95.03
2023-06-03T04:19:53.281Z,94.86
2023-06-03T04:22:25.065Z,94.44
2023-06-03T04:25:01.265Z,94.30
2023-06-03T04:27:34.097Z,94.07
2023-06-03T04:30:01.800Z,93.87
2023-06-03T04:32:29.943Z,93.90
2023-06-03T04:34:56.922Z,93.66
2023-06-03T04:37:24.156Z,93.28
2023-06-03T04:39:51.864Z,92.60
2023-06-03T04:42:18.745Z,92.00
2023-06-03T04:44:48.799Z,90.34
2023-06-03T04:47:17.898Z,88.54
2023-06-03T04:49:47.608Z,88.81
2023-06-03T04:52:14.551Z,87.86
2023-06-03T04:54:44.005Z,87.25
2023-06-03T04:57:12.319Z,86.97
2023-06-03T04:59:39.230Z,86.43
2023-06-03T05:02:09.105Z,85.57
2023-06-03T05:04:38.104Z,83.53
2023-06-03T05:07:05.229Z,81.18
2023-06-03T05:09:32.194Z,82.12
2023-06-03T05:11:59.293Z,81.69
2023-06-03T05:14:26.162Z,80.56
2023-06-03T05:16:53.386Z,79.41
2023-06-03T05:19:20.534Z,78.93
2023-06-03T05:21:47.696Z,77.04
2023-06-03T05:24:14.494Z,77.46
2023-06-03T05:26:41.637Z,78.15
2023-06-03T05:29:09.360Z,77.07
2023-06-03T05:31:36.355Z,77.01
2023-06-03T05:34:03.209Z,74.71
2023-06-03T05:36:30.576Z,74.66
2023-06-03T05:38:59.232Z,74.66
2023-06-03T05:41:26.179Z,73.38
2023-06-03T05:43:54.063Z,72.75
2023-06-03T05:46:21.461Z,72.30
2023-06-03T05:48:48.575Z,72.58
2023-06-03T05:51:15.756Z,72.69
2023-06-03T05:53:44.483Z,71.91
2023-06-03T05:56:12.886Z,71.49
2023-06-03T05:58:39.903Z,72.00
2023-06-03T06:01:06.925Z,70.54
2023-06-03T06:03:34.079Z,68.02
2023-06-03T06:06:01.661Z,67.73
2023-06-03T06:08:29.219Z,69.36
2023-06-03T06:10:56.360Z,68.13
2023-06-03T06:13:23.348Z,67.05
2023-06-03T06:16:01.597Z,66.66
2023-06-03T06:18:32.132Z,66.57
2023-06-03T06:21:00.143Z,62.94
2023-06-03T06:23:27.424Z,63.35
2023-06-03T06:25:55.751Z,62.70
2023-06-03T06:28:28.195Z,62.37
2023-06-03T06:31:05.786Z,61.51
2023-06-03T06:33:36.578Z,60.01
2023-06-03T06:36:27.750Z,59.67
2023-06-03T06:38:55.749Z,59.82
2023-06-03T06:41:22.749Z,58.82
2023-06-03T06:43:49.783Z,56.92
2023-06-03T06:46:17.759Z,57.16
2023-06-03T06:48:44.962Z,56.36
2023-06-03T06:51:12.605Z,56.13
2023-06-03T06:53:43.208Z,56.05
2023-06-03T06:56:13.166Z,53.97
2023-06-03T06:58:46.749Z,52.92
2023-06-03T07:01:15.245Z,52.49
2023-06-03T07:03:50.389Z,52.38
2023-06-03T07:06:17.928Z,51.27
2023-06-03T07:08:46.008Z,49.48
2023-06-03T07:11:15.138Z,48.71
2023-06-03T07:13:45.832Z,47.94
2023-06-03T07:16:16.143Z,48.89
2023-06-03T07:18:43.322Z,48.69
2023-06-03T07:21:10.605Z,47.56
2023-06-03T07:23:38.519Z,47.60
2023-06-03T07:26:05.811Z,47.03
2023-06-03T07:28:35.371Z,47.40
2023-06-03T07:31:09.613Z,47.15
2023-06-03T07:33:48.588Z,46.28
2023-06-03T07:36:21.385Z,46.57
2023-06-03T07:38:57.433Z,45.56
2023-06-03T07:41:37.094Z,45.49
2023-06-03T07:44:13.922Z,44.87
2023-06-03T07:46:45.592Z,43.88
2023-06-03T07:49:15.386Z,43.99
2023-06-03T07:51:49.650Z,44.34
2023-06-03T07:54:18.307Z,42.22
2023-06-03T07:56:46.448Z,41.18
2023-06-03T07:59:15.551Z,40.97
2023-06-03T08:01:43.562Z,41.25
2023-06-03T08:04:35.894Z,41.08
2023-06-03T08:07:03.116Z,39.92
2023-06-03T08:09:35.170Z,39.30
2023-06-03T08:12:05.839Z,39.96
2023-06-03T08:14:35.215Z,39.84
2023-06-03T08:17:06.804Z,39.32
2023-06-03T08:19:35.340Z,39.43
2023-06-03T08:22:02.246Z,40.06
2023-06-03T08:24:29.007Z,39.43
2023-06-03T08:26:56.172Z,38.50
2023-06-03T08:29:23.104Z,37.78
2023-06-03T08:31:49.944Z,38.11
2023-06-03T08:34:16.855Z,38.29
2023-06-03T08:36:43.839Z,39.14
2023-06-03T08:39:10.915Z,39.18
2023-06-03T08:41:42.009Z,39.56
2023-06-03T08:44:22.641Z,40.26
2023-06-03T08:46:59.523Z,40.93
2023-06-03T08:49:36.870Z,40.90
2023-06-03T08:52:08.636Z,41.05
2023-06-03T08:54:38.118Z,41.13
2023-06-03T08:57:12.352Z,41.39
2023-06-03T08:59:42.683Z,42.16
2023-06-03T09:02:13.243Z,42.84
2023-06-03T09:04:41.524Z,43.12
2023-06-03T09:07:11.556Z,43.26
2023-06-03T09:09:41.061Z,43.11
2023-06-03T09:12:09.105Z,43.31
2023-06-03T09:14:40.045Z,43.90
2023-06-03T09:17:07.313Z,44.32
2023-06-03T09:19:35.318Z,44.47
2023-06-03T09:22:04.289Z,44.71
2023-06-03T09:24:31.080Z,45.08
2023-06-03T09:26:58.629Z,45.67
2023-06-03T09:29:25.535Z,45.73
2023-06-03T09:31:52.901Z,45.92
2023-06-03T09:34:22.616Z,46.00
2023-06-03T09:36:50.143Z,46.02
2023-06-03T09:39:32.399Z,46.35
2023-06-03T09:41:59.161Z,46.17
2023-06-03T09:44:49.298Z,46.02
2023-06-03T09:47:16.954Z,46.18
2023-06-03T09:50:05.398Z,45.82
2023-06-03T09:52:36.560Z,45.64
2023-06-03T09:55:08.642Z,45.57
2023-06-03T09:57:36.897Z,45.32
2023-06-03T10:00:12.297Z,44.49
2023-06-03T10:02:40.648Z,44.73
2023-06-03T10:05:27.878Z,44.81
2023-06-03T10:07:55.895Z,43.87
2023-06-03T10:10:23.640Z,43.93
2023-06-03T10:12:51.700Z,43.72
2023-06-03T10:15:40.148Z,42.78
2023-06-03T10:18:08.035Z,42.51
2023-06-03T10:20:36.127Z,42.52
2023-06-03T10:23:05.386Z,42.57
2023-06-03T10:25:38.307Z,42.07
2023-06-03T10:28:05.954Z,41.77
2023-06-03T10:30:32.959Z,41.48
2023-06-03T10:33:03.863Z,41.34
2023-06-03T10:35:35.136Z,41.03
2023-06-03T10:38:04.334Z,39.54
2023-06-03T10:40:32.445Z,39.61
2023-06-03T10:43:02.932Z,38.41
2023-06-03T10:45:30.677Z,37.75
2023-06-03T10:48:04.153Z,37.80
2023-06-03T10:50:51.175Z,37.46
2023-06-03T10:53:28.237Z,36.81
2023-06-03T10:56:20.604Z,36.46
2023-06-03T10:58:58.971Z,36.31
2023-06-03T11:02:01.350Z,36.22
2023-06-03T11:04:30.784Z,35.72
2023-06-03T11:06:58.481Z,35.37
2023-06-03T11:09:40.046Z,35.25
2023-06-03T11:12:13.919Z,35.95
2023-06-03T11:14:43.222Z,36.04
2023-06-03T11:17:13.014Z,35.62
2023-06-03T11:19:46.047Z,36.03
2023-06-03T11:22:35.854Z,35.31
2023-06-03T11:25:03.200Z,35.31
2023-06-03T11:27:30.879Z,35.83
2023-06-03T11:30:03.088Z,35.98
2023-06-03T11:32:36.391Z,35.73
2023-06-03T11:35:03.901Z,35.45
2023-06-03T11:37:49.060Z,34.76
2023-06-03T11:40:20.977Z,35.09
2023-06-03T11:42:47.995Z,34.82
2023-06-03T11:45:30.154Z,34.54
2023-06-03T11:48:06.100Z,35.17
2023-06-03T11:50:54.112Z,35.41
2023-06-03T11:53:28.857Z,35.82
2023-06-03T11:56:09.975Z,35.18
2023-06-03T11:58:38.629Z,33.97
2023-06-03T12:01:08.679Z,33.49
2023-06-03T12:03:39.441Z,33.45
2023-06-03T12:06:06.870Z,34.13
2023-06-03T12:08:46.340Z,34.43
2023-06-03T12:11:31.187Z,34.85
2023-06-03T12:13:58.057Z,35.31
2023-06-03T12:16:33.991Z,35.49
2023-06-03T12:19:03.838Z,36.01
2023-06-03T12:21:40.043Z,36.84
2023-06-03T12:24:13.740Z,36.83
2023-06-03T12:26:41.779Z,36.80
2023-06-03T12:29:11.797Z,36.12
2023-06-03T12:31:39.114Z,35.58
2023-06-03T12:34:06.240Z,35.01
2023-06-03T12:36:46.661Z,34.99
2023-06-03T12:39:13.820Z,35.03
2023-06-03T12:41:51.470Z,35.80
2023-06-03T12:44:18.743Z,36.28
2023-06-03T12:47:02.083Z,36.34
2023-06-03T12:49:29.056Z,36.60
2023-06-03T12:52:21.355Z,36.74
2023-06-03T12:54:53.340Z,36.86
2023-06-03T12:57:20.817Z,36.99
2023-06-03T13:00:04.870Z,37.25
2023-06-03T13:02:31.953Z,37.05
2023-06-03T13:04:59.047Z,37.67
2023-06-03T13:07:26.239Z,38.64
2023-06-03T13:09:58.987Z,38.45
2023-06-03T13:12:26.302Z,38.50
2023-06-03T13:14:53.642Z,38.18
2023-06-03T13:17:23.481Z,37.76
2023-06-03T13:19:51.207Z,37.30
2023-06-03T13:25:22.754Z,36.83
2023-06-03T13:27:53.091Z,36.13
2023-06-03T13:30:20.961Z,35.37
2023-06-03T13:32:47.789Z,35.08
2023-06-03T13:35:14.818Z,34.22
2023-06-03T13:37:41.656Z,34.33
2023-06-03T13:40:09.131Z,34.13
2023-06-03T13:42:36.395Z,33.30
2023-06-03T13:45:06.887Z,33.42
2023-06-03T13:47:34.671Z,33.49
2023-06-03T13:50:02.372Z,33.13
2023-06-03T13:52:29.187Z,33.08
2023-06-03T13:54:56.003Z,33.09
2023-06-03T13:57:22.767Z,33.40
2023-06-03T13:59:49.527Z,34.13
2023-06-03T14:02:16.744Z,34.59
2023-06-03T14:04:43.829Z,35.07
2023-06-03T14:07:11.131Z,34.98
2023-06-03T14:09:38.098Z,35.03
2023-06-03T14:12:05.664Z,35.34
2023-06-03T14:14:32.493Z,35.02
2023-06-03T14:16:59.321Z,34.46
2023-06-03T14:19:26.173Z,34.21
2023-06-03T14:21:53.071Z,34.01
2023-06-03T14:24:20.089Z,33.76
2023-06-03T14:26:47.119Z,34.07
2023-06-03T14:29:14.157Z,34.27
2023-06-03T14:31:41.288Z,34.29
2023-06-03T14:34:08.346Z,34.40
2023-06-03T14:36:36.154Z,34.37
2023-06-03T14:39:03.074Z,34.38
2023-06-03T14:41:31.441Z,34.40
2023-06-03T14:43:58.732Z,34.89
2023-06-03T14:46:29.244Z,34.87
2023-06-03T14:48:56.507Z,34.96
2023-06-03T14:51:23.668Z,35.14
2023-06-03T14:53:50.966Z,35.62
2023-06-03T14:56:17.979Z,36.13
2023-06-03T14:58:44.988Z,36.37
2023-06-03T15:01:12.121Z,36.90
2023-06-03T15:03:39.064Z,37.05
2023-06-03T15:06:06.366Z,37.25
2023-06-03T15:08:33.566Z,37.44
2023-06-03T15:11:00.477Z,37.63
2023-06-03T15:13:27.335Z,37.70
2023-06-03T15:15:54.170Z,37.69
2023-06-03T15:18:21.085Z,38.05
2023-06-03T15:20:48.408Z,38.45
2023-06-03T15:23:15.869Z,38.85
2023-06-03T15:25:42.916Z,39.37
2023-06-03T15:28:10.336Z,39.72
2023-06-03T15:30:38.380Z,40.42
2023-06-03T15:33:06.597Z,40.41
2023-06-03T15:35:33.521Z,40.23
2023-06-03T15:38:00.613Z,39.80
2023-06-03T15:40:27.532Z,39.77
2023-06-03T15:42:58.018Z,39.85
2023-06-03T15:45:25.152Z,39.05
2023-06-03T15:47:52.133Z,39.29
2023-06-03T15:50:19.447Z,39.59
2023-06-03T15:52:46.284Z,39.93
2023-06-03T15:55:13.383Z,39.98
2023-06-03T15:57:40.528Z,40.43
2023-06-03T16:00:08.288Z,40.78
2023-06-03T16:02:36.211Z,40.83
2023-06-03T16:05:04.727Z,40.66
2023-06-03T16:07:32.968Z,40.48
2023-06-03T16:10:01.606Z,40.62
2023-06-03T16:12:30.202Z,41.33
2023-06-03T16:14:57.759Z,44.45
2023-06-03T16:17:29.301Z,46.17
2023-06-03T16:24:26.298Z,49.54
2023-06-03T16:27:53.042Z,51.35
2023-06-03T16:29:02.150Z,48.09
2023-06-03T16:30:20.948Z,52.75
2023-06-03T16:32:48.105Z,53.11
2023-06-03T16:35:19.564Z,53.98
2023-06-03T16:37:52.784Z,55.20
2023-06-03T16:50:29.362Z,57.10
2023-06-03T17:17:41.951Z,63.78
2023-06-03T17:25:05.905Z,65.78
2023-06-03T18:05:41.709Z,67.06
2023-06-03T18:08:12.146Z,66.97
2023-06-03T18:10:59.949Z,67.09
2023-06-03T18:18:25.510Z,67.85
2023-06-03T18:26:02.101Z,68.91
2023-06-03T18:28:29.208Z,69.05
2023-06-03T18:40:39.051Z,70.02
2023-06-03T18:46:57.832Z,70.09
2023-06-03T18:49:52.453Z,70.15
2023-06-03T18:53:20.096Z,70.81
2023-06-03T19:02:30.167Z,71.65
2023-06-03T19:05:30.834Z,72.42
2023-06-03T19:08:23.309Z,72.19
2023-06-03T19:10:55.517Z,72.01
2023-06-03T19:13:26.438Z,72.27
2023-06-03T19:15:58.508Z,72.86
2023-06-03T19:18:33.567Z,72.84
2023-06-03T19:21:02.898Z,72.88
2023-06-03T19:24:03.113Z,73.36
2023-06-03T19:26:42.384Z,73.45
2023-06-03T19:56:12.823Z,77.14
2023-06-03T20:08:52.791Z,77.66
2023-06-03T20:11:35.755Z,78.40
2023-06-03T20:14:24.591Z,78.14
2023-06-03T20:17:19.598Z,78.29
2023-06-03T20:29:11.831Z,78.46
2023-06-03T20:31:40.109Z,79.07
2023-06-03T20:34:07.171Z,78.98
2023-06-03T20:36:35.038Z,79.10
2023-06-03T20:39:02.237Z,79.31
2023-06-03T20:41:29.811Z,79.34
2023-06-03T20:43:56.924Z,79.29
2023-06-03T20:46:25.430Z,79.15
2023-06-03T20:48:52.489Z,79.28
2023-06-03T20:51:19.585Z,79.69
2023-06-03T20:53:46.899Z,79.76
2023-06-03T20:56:19.540Z,79.72
2023-06-03T20:58:49.361Z,79.50
2023-06-03T21:01:35.581Z,79.24
2023-06-03T21:04:03.523Z,79.16
2023-06-03T21:06:31.014Z,78.82
2023-06-03T21:08:58.219Z,78.61
2023-06-03T21:11:25.685Z,78.15
2023-06-03T21:13:54.588Z,77.77
2023-06-03T21:16:21.665Z,77.45
2023-06-03T21:18:48.757Z,77.25
2023-06-03T21:21:15.873Z,77.06
2023-06-03T21:23:43.039Z,76.51
2023-06-03T21:26:10.372Z,76.25
2023-06-03T21:28:37.393Z,76.04
2023-06-03T21:31:04.669Z,76.02
2023-06-03T21:33:31.821Z,75.76
2023-06-03T21:36:00.139Z,76.01
2023-06-03T21:38:27.567Z,76.58
2023-06-03T21:40:56.796Z,76.55
2023-06-03T21:43:23.953Z,76.28
2023-06-03T21:45:51.374Z,74.44
2023-06-03T21:48:18.471Z,73.28
2023-06-03T21:50:45.699Z,72.64
2023-06-03T21:53:12.766Z,72.74
2023-06-03T21:55:40.778Z,72.62
2023-06-03T21:58:08.175Z,72.52
2023-06-03T22:00:35.324Z,72.32
2023-06-03T22:03:02.819Z,71.83
2023-06-03T22:05:29.888Z,70.57
2023-06-03T22:07:56.885Z,69.92
2023-06-03T22:10:23.895Z,69.91
2023-06-03T22:12:51.166Z,69.67
2023-06-03T22:15:18.328Z,69.58
2023-06-03T22:17:45.654Z,69.58
2023-06-03T22:20:12.735Z,68.98
2023-06-03T22:22:40.488Z,68.18
2023-06-03T22:25:08.882Z,68.27
2023-06-03T22:27:35.961Z,68.12
2023-06-03T22:30:05.357Z,67.97
2023-06-03T22:32:32.497Z,67.84
2023-06-03T22:34:59.455Z,68.03
2023-06-03T22:37:26.440Z,68.29
2023-06-03T22:39:53.695Z,68.37
2023-06-03T22:42:20.824Z,68.30
2023-06-03T22:44:47.996Z,68.23
2023-06-03T22:47:15.122Z,67.77
2023-06-03T22:49:42.187Z,67.53
2023-06-03T22:52:09.321Z,67.11
2023-06-03T22:54:36.384Z,67.15
2023-06-03T22:57:03.615Z,67.11
2023-06-03T22:59:30.547Z,67.35
2023-06-03T23:01:58.692Z,67.61
2023-06-03T23:04:25.832Z,67.75
2023-06-03T23:06:52.754Z,67.90
2023-06-03T23:09:19.881Z,67.94
2023-06-03T23:11:47.771Z,67.79
2023-06-03T23:14:14.736Z,67.62
2023-06-03T23:16:42.056Z,67.47
2023-06-03T23:19:09.224Z,67.44
2023-06-03T23:21:36.301Z,67.33
2023-06-03T23:24:03.518Z,67.28
2023-06-03T23:26:30.683Z,67.02
2023-06-03T23:28:57.698Z,66.62
2023-06-03T23:31:25.490Z,66.38
2023-06-03T23:33:52.521Z,66.56
2023-06-03T23:36:21.205Z,66.47
2023-06-03T23:38:50.404Z,66.28
2023-06-03T23:41:17.465Z,66.26
2023-06-03T23:43:44.884Z,66.43
2023-06-03T23:46:12.253Z,66.30
2023-06-03T23:48:41.180Z,66.31
2023-06-03T23:51:10.352Z,66.40
2023-06-03T23:53:37.381Z,66.57
2023-06-03T23:56:04.537Z,66.65
2023-06-03T23:58:31.648Z,66.69
